Time;durP1;ratioP1;P1;durP2;ratioP2;P2;SDS_P1;SDS_P2;PMS_P1;PMS_P2;Temp;Humidity;BMP_temperature;BMP_pressure;BME280_temperature;BME280_humidity;BME280_pressure;Samples;Min_cycle;Max_cycle;Signal;HPM_P1;HPM_P2
2022/07/01 00:02:00;;;;;;;;;;;;;;;;;;5045690;28;19932;-76
2022/07/01 00:04:27;;;;;;;;;;;;;;;;;;5049436;28;19927;-76
2022/07/01 00:06:53;;;;;;;;;;;;;;;;;;5048204;28;19925;-76
2022/07/01 00:09:19;;;;;;;;;;;;;;;;;;5050441;28;19932;-76
2022/07/01 00:11:45;;;;;;;;;;;;;;;;;;5070845;22;20379;-74
2022/07/01 00:14:11;;;;;;;;;;;;;;;;;;5059202;28;20162;-75
2022/07/01 00:16:37;;;;;;;;;;;;;;;;;;5060932;28;19926;-75
2022/07/01 00:19:04;;;;;;;;;;;;;;;;;;5061721;28;19935;-75
2022/07/01 00:21:30;;;;;;;;;;;;;;;;;;5059725;28;19920;-75
2022/07/01 00:23:56;;;;;;;;;;;;;;;;;;5061227;28;19928;-75
2022/07/01 00:26:22;;;;;;;;;;;;;;;;;;5061303;28;19928;-75
2022/07/01 00:28:48;;;;;;;;;;;;;;;;;;5059647;28;19920;-75
2022/07/01 00:31:14;;;;;;;;;;;;;;;;;;5056054;28;19921;-75
2022/07/01 00:33:42;;;;;;;7.77;6.17;;;;;;;;;;5056714;28;20572;-75
2022/07/01 00:36:08;;;;;;;9.97;6.87;;;;;;;;;;5058567;28;20464;-75
2022/07/01 00:38:35;;;;;;;8.17;7.10;;;;;;;;;;5056812;28;20479;-75
2022/07/01 00:41:01;;;;;;;8.93;8.03;;;;;;;;;;5058235;28;20450;-74
2022/07/01 00:43:28;;;;;;;9.03;7.80;;;;;;;;;;5055932;28;20471;-75
2022/07/01 00:45:54;;;;;;;9.73;8.73;;;;;;;;;;5058231;28;20838;-75
2022/07/01 00:48:22;;;;;;;9.80;8.43;;;;;;;;;;5055620;28;20480;-75
2022/07/01 00:50:50;;;;;;;13.47;9.23;;;;;;;;;;5060901;28;20464;-75
2022/07/01 00:53:16;;;;;;;15.00;11.07;;;;;;;;;;5058819;28;20503;-75
2022/07/01 00:55:43;;;;;;;11.23;9.83;;;;;;;;;;5059405;28;20451;-75
2022/07/01 00:58:10;;;;;;;10.13;9.23;;;;;;;;;;5059304;28;20437;-75
2022/07/01 01:00:38;;;;;;;10.30;9.40;;;;;;;;;;5058608;28;20475;-75
2022/07/01 01:03:05;;;;;;;12.47;11.17;;;;;;;;;;5055798;28;21003;-75
2022/07/01 01:05:32;;;;;;;12.20;9.57;;;;;;;;;;5058575;28;21104;-75
2022/07/01 01:07:59;;;;;;;11.53;10.43;;;;;;;;;;5056152;28;20449;-74
2022/07/01 01:10:27;;;;;;;10.93;9.93;;;;;;;;;;5058735;28;20493;-75
2022/07/01 01:12:54;;;;;;;13.27;10.93;;;;;;;;;;5058076;28;20455;-75
2022/07/01 01:15:20;;;;;;;11.43;10.33;;;;;;;;;;5057054;28;20431;-75
2022/07/01 01:17:47;;;;;;;20.83;12.30;;;;;;;;;;5055707;28;20482;-74
2022/07/01 01:20:15;;;;;;;13.23;11.83;;;;;;;;;;5058084;28;20534;-74
2022/07/01 01:22:43;;;;;;;11.97;10.80;;;;;;;;;;5058759;28;20478;-75
2022/07/01 01:25:09;;;;;;;12.63;11.33;;;;;;;;;;5057702;28;20839;-75
2022/07/01 01:27:36;;;;;;;12.23;10.80;;;;;;;;;;5058588;28;20457;-75
2022/07/01 01:30:03;;;;;;;13.13;11.77;;;;;;;;;;5058916;28;20955;-75
2022/07/01 01:32:29;;;;;;;15.60;10.77;;;;;;;;;;5056362;28;20449;-74
2022/07/01 01:34:56;;;;;;;12.23;10.63;;;;;;;;;;5059871;28;20455;-74
2022/07/01 01:37:22;;;;;;;16.70;11.03;;;;;;;;;;5057636;28;20478;-75
2022/07/01 01:39:50;;;;;;;18.83;12.02;;;;;;;;;;5057726;28;20419;-74
2022/07/01 01:42:16;;;;;;;19.97;10.57;;;;;;;;;;5055598;28;20225;-73
2022/07/01 01:44:42;;;;;;;14.10;9.70;;;;;;;;;;5058594;28;20441;-74
2022/07/01 01:47:09;;;;;;;12.30;8.13;;;;;;;;;;5056780;28;20445;-74
2022/07/01 01:49:35;;;;;;;12.57;8.93;;;;;;;;;;5057080;28;20462;-74
2022/07/01 01:52:01;;;;;;;15.90;9.33;;;;;;;;;;5056369;28;20449;-74
2022/07/01 01:54:27;;;;;;;15.10;8.20;;;;;;;;;;5057996;28;20458;-74
2022/07/01 01:56:55;;;;;;;10.33;6.60;;;;;;;;;;5058159;28;20449;-74
2022/07/01 01:59:21;;;;;;;11.67;7.40;;;;;;;;;;5059483;28;20434;-74
2022/07/01 02:01:48;;;;;;;10.60;6.13;;;;;;;;;;5056282;28;20450;-74
2022/07/01 02:04:14;;;;;;;10.07;6.20;;;;;;;;;;5057736;28;20464;-75
2022/07/01 02:06:41;;;;;;;32.00;6.70;;;;;;;;;;5056880;28;20540;-74
2022/07/01 02:09:07;;;;;;;9.30;5.73;;;;;;;;;;5057929;28;20888;-73
2022/07/01 02:11:33;;;;;;;6.70;4.70;;;;;;;;;;5060042;28;20490;-74
2022/07/01 02:14:01;;;;;;;11.52;5.55;;;;;;;;;;5060508;28;20430;-74
2022/07/01 02:16:27;;;;;;;12.60;5.57;;;;;;;;;;5061432;28;20907;-74
2022/07/01 02:18:54;;;;;;;15.57;6.30;;;;;;;;;;5060423;28;20429;-73
2022/07/01 02:21:20;;;;;;;15.77;6.88;;;;;;;;;;5059793;28;20432;-74
2022/07/01 02:23:46;;;;;;;15.20;5.57;;;;;;;;;;5059945;28;20436;-74
2022/07/01 02:26:13;;;;;;;12.30;5.78;;;;;;;;;;5060426;28;21307;-74
2022/07/01 02:28:40;;;;;;;17.77;5.80;;;;;;;;;;5059331;28;20430;-74
2022/07/01 02:31:07;;;;;;;13.65;5.32;;;;;;;;;;5059272;28;21057;-74
2022/07/01 02:33:34;;;;;;;14.23;5.10;;;;;;;;;;5059355;28;20956;-74
2022/07/01 02:36:00;;;;;;;15.02;5.35;;;;;;;;;;5058865;28;20433;-74
2022/07/01 02:38:26;;;;;;;12.30;5.50;;;;;;;;;;5061028;28;20444;-74
2022/07/01 02:40:53;;;;;;;7.43;4.75;;;;;;;;;;5059929;28;20425;-74
2022/07/01 02:43:19;;;;;;;13.70;5.28;;;;;;;;;;5059653;28;20432;-74
2022/07/01 02:45:45;;;;;;;11.70;4.93;;;;;;;;;;5059022;28;20977;-74
2022/07/01 02:48:13;;;;;;;9.40;4.85;;;;;;;;;;5057361;28;20426;-73
2022/07/01 02:50:39;;;;;;;12.40;5.00;;;;;;;;;;5059717;28;20424;-74
2022/07/01 02:53:06;;;;;;;9.40;3.92;;;;;;;;;;5057758;28;20426;-74
2022/07/01 02:55:32;;;;;;;9.45;4.15;;;;;;;;;;5059564;28;20438;-74
2022/07/01 02:57:58;;;;;;;9.75;4.88;;;;;;;;;;5058255;28;20433;-74
2022/07/01 03:00:25;;;;;;;15.93;5.80;;;;;;;;;;5058243;28;20800;-74
2022/07/01 03:02:51;;;;;;;9.63;5.05;;;;;;;;;;5058998;28;20523;-74
2022/07/01 03:05:19;;;;;;;11.20;5.20;;;;;;;;;;5059522;28;20425;-74
2022/07/01 03:07:45;;;;;;;13.63;5.00;;;;;;;;;;5058703;28;20419;-74
2022/07/01 03:10:12;;;;;;;8.32;4.30;;;;;;;;;;5058852;28;20951;-74
2022/07/01 03:12:39;;;;;;;10.85;5.13;;;;;;;;;;5059419;28;20429;-74
2022/07/01 03:15:07;;;;;;;9.23;4.38;;;;;;;;;;5058647;28;20444;-74
2022/07/01 03:17:34;;;;;;;10.23;3.90;;;;;;;;;;5058388;28;20430;-74
2022/07/01 03:20:01;;;;;;;8.80;4.13;;;;;;;;;;5059199;28;20420;-74
2022/07/01 03:22:31;;;;;;;9.43;3.78;;;;;;;;;;5059060;28;20436;-74
2022/07/01 03:24:57;;;;;;;11.23;3.40;;;;;;;;;;5059744;28;20795;-74
2022/07/01 03:27:24;;;;;;;9.13;3.07;;;;;;;;;;5059508;28;20531;-74
2022/07/01 03:29:51;;;;;;;6.82;3.20;;;;;;;;;;5059692;28;20425;-74
2022/07/01 03:32:17;;;;;;;6.43;2.92;;;;;;;;;;5056987;28;20430;-74
2022/07/01 03:34:44;;;;;;;9.73;2.97;;;;;;;;;;5058667;28;20437;-74
2022/07/01 03:37:11;;;;;;;8.25;2.30;;;;;;;;;;5058043;28;20430;-74
2022/07/01 03:39:39;;;;;;;6.32;2.70;;;;;;;;;;5059215;28;20430;-74
2022/07/01 03:42:07;;;;;;;5.00;2.40;;;;;;;;;;5057374;28;20409;-74
2022/07/01 03:44:34;;;;;;;12.05;3.67;;;;;;;;;;5058654;28;20433;-74
2022/07/01 03:47:00;;;;;;;7.00;2.65;;;;;;;;;;5057425;28;20408;-74
2022/07/01 03:49:26;;;;;;;4.82;2.50;;;;;;;;;;5056846;28;21226;-74
2022/07/01 03:51:53;;;;;;;7.47;2.70;;;;;;;;;;5059526;28;20404;-74
2022/07/01 03:54:30;;;;;;;5.10;2.67;;;;;;;;;;5057659;28;20444;-74
2022/07/01 03:56:58;;;;;;;5.93;2.90;;;;;;;;;;5057606;28;20473;-74
2022/07/01 03:59:25;;;;;;;6.28;3.20;;;;;;;;;;5059306;28;20435;-74
2022/07/01 04:01:52;;;;;;;4.67;3.20;;;;;;;;;;5056039;28;21197;-74
2022/07/01 04:04:18;;;;;;;6.43;3.08;;;;;;;;;;5059522;28;20436;-74
2022/07/01 04:06:45;;;;;;;4.43;2.90;;;;;;;;;;5058208;28;20423;-74
2022/07/01 04:09:12;;;;;;;7.10;3.17;;;;;;;;;;5056125;28;20450;-73
2022/07/01 04:11:38;;;;;;;3.72;3.10;;;;;;;;;;5058222;28;20420;-74
2022/07/01 04:14:06;;;;;;;7.10;3.08;;;;;;;;;;5057419;28;20442;-74
2022/07/01 04:16:32;;;;;;;4.78;2.65;;;;;;;;;;5057010;28;20435;-74
2022/07/01 04:18:59;;;;;;;3.47;2.40;;;;;;;;;;5058701;28;20435;-74
2022/07/01 04:24:09;;;;;;;7.25;3.17;;;;;;;;;;5057297;28;20418;-74
2022/07/01 04:26:35;;;;;;;5.18;3.13;;;;;;;;;;5058223;28;20949;-74
2022/07/01 04:29:02;;;;;;;7.18;3.40;;;;;;;;;;5056589;28;20439;-74
2022/07/01 04:31:30;;;;;;;13.18;4.07;;;;;;;;;;5058255;28;20430;-74
2022/07/01 04:33:56;;;;;;;6.13;3.55;;;;;;;;;;5055838;28;20936;-74
2022/07/01 04:36:22;;;;;;;11.35;4.10;;;;;;;;;;5056730;28;20439;-74
2022/07/01 04:38:49;;;;;;;7.80;3.45;;;;;;;;;;5057346;28;20423;-74
2022/07/01 04:43:59;;;;;;;4.37;2.70;;;;;;;;;;5057029;28;20428;-74
2022/07/01 04:46:25;;;;;;;5.05;2.60;;;;;;;;;;5053904;28;20431;-74
2022/07/01 04:48:54;;;;;;;4.47;2.67;;;;;;;;;;5056687;28;20429;-74
2022/07/01 04:51:20;;;;;;;3.45;1.90;;;;;;;;;;5057891;28;20437;-74
2022/07/01 04:53:46;;;;;;;4.53;2.20;;;;;;;;;;5056279;28;20765;-74
2022/07/01 04:56:12;;;;;;;4.03;1.90;;;;;;;;;;5057468;28;20895;-74
2022/07/01 04:58:39;;;;;;;5.05;2.00;;;;;;;;;;5055631;28;20431;-74
2022/07/01 05:01:05;;;;;;;4.68;2.53;;;;;;;;;;5057466;28;20424;-74
2022/07/01 05:03:32;;;;;;;4.30;2.20;;;;;;;;;;5057365;28;20469;-74
2022/07/01 05:05:59;;;;;;;3.80;2.08;;;;;;;;;;5058056;28;20437;-74
2022/07/01 05:08:26;;;;;;;4.40;2.38;;;;;;;;;;5058116;28;20781;-74
2022/07/01 05:10:52;;;;;;;3.22;2.13;;;;;;;;;;5055864;28;20525;-73
2022/07/01 05:13:18;;;;;;;2.33;2.13;;;;;;;;;;5058236;28;20420;-73
2022/07/01 05:15:45;;;;;;;3.78;2.38;;;;;;;;;;5056200;28;20427;-74
2022/07/01 05:23:40;;;;;;;3.47;2.22;;;;;;;;;;5056241;28;20489;-74
2022/07/01 05:26:06;;;;;;;4.18;2.80;;;;;;;;;;5056050;28;20434;-74
2022/07/01 05:28:32;;;;;;;3.33;2.43;;;;;;;;;;5056380;28;20432;-74
2022/07/01 05:30:59;;;;;;;4.25;2.70;;;;;;;;;;5056264;28;20935;-74
2022/07/01 05:33:26;;;;;;;3.58;3.28;;;;;;;;;;5054833;28;20436;-74
2022/07/01 05:35:52;;;;;;;3.40;2.80;;;;;;;;;;5057288;28;20429;-74
2022/07/01 05:38:19;;;;;;;4.00;3.20;;;;;;;;;;5055952;28;20428;-74
2022/07/01 05:40:46;;;;;;;4.80;3.35;;;;;;;;;;5055131;28;20794;-74
2022/07/01 05:43:13;;;;;;;6.60;3.90;;;;;;;;;;5056777;28;20435;-74
2022/07/01 05:45:39;;;;;;;4.82;3.75;;;;;;;;;;5055897;28;20434;-74
2022/07/01 05:48:06;;;;;;;6.05;3.60;;;;;;;;;;5055522;28;21363;-74
2022/07/01 05:50:32;;;;;;;5.28;3.40;;;;;;;;;;5055853;28;20432;-73
2022/07/01 05:52:58;;;;;;;6.43;3.97;;;;;;;;;;5055809;28;20421;-74
2022/07/01 05:55:25;;;;;;;5.63;3.92;;;;;;;;;;5057775;28;20431;-74
2022/07/01 05:57:53;;;;;;;4.50;4.10;;;;;;;;;;5056546;28;20427;-74
2022/07/01 06:00:19;;;;;;;5.03;4.00;;;;;;;;;;5056767;28;20425;-74
2022/07/01 06:02:45;;;;;;;5.50;4.10;;;;;;;;;;5056677;28;20439;-74
2022/07/01 06:05:13;;;;;;;5.15;4.00;;;;;;;;;;5056477;28;20498;-74
2022/07/01 06:07:40;;;;;;;6.20;4.32;;;;;;;;;;5056311;28;20411;-74
2022/07/01 06:10:07;;;;;;;4.68;4.20;;;;;;;;;;5056262;28;20922;-74
2022/07/01 06:12:33;;;;;;;5.07;4.57;;;;;;;;;;5057539;23;20779;-73
2022/07/01 06:15:01;;;;;;;6.75;4.35;;;;;;;;;;5040573;28;20437;-73
2022/07/01 06:17:27;;;;;;;6.95;4.20;;;;;;;;;;5038895;28;20419;-73
2022/07/01 06:19:53;;;;;;;6.20;4.43;;;;;;;;;;5036879;28;20444;-73
2022/07/01 06:22:20;;;;;;;5.43;4.80;;;;;;;;;;5037116;28;20456;-73
2022/07/01 06:24:47;;;;;;;5.78;4.75;;;;;;;;;;5036567;28;20502;-73
2022/07/01 06:27:13;;;;;;;5.20;4.70;;;;;;;;;;5037693;28;20422;-73
2022/07/01 06:29:40;;;;;;;5.95;4.40;;;;;;;;;;5037179;28;20443;-73
2022/07/01 06:32:08;;;;;;;5.40;4.20;;;;;;;;;;5037445;28;20774;-73
2022/07/01 06:34:35;;;;;;;6.63;4.90;;;;;;;;;;5037323;28;20465;-73
2022/07/01 06:37:01;;;;;;;4.78;4.30;;;;;;;;;;5037047;28;20497;-73
2022/07/01 06:39:28;;;;;;;5.10;4.35;;;;;;;;;;5037558;28;20470;-73
2022/07/01 06:41:54;;;;;;;5.20;4.70;;;;;;;;;;5037399;28;20831;-73
2022/07/01 06:44:20;;;;;;;5.90;4.80;;;;;;;;;;5037785;28;20956;-73
2022/07/01 06:46:47;;;;;;;6.80;5.22;;;;;;;;;;5035887;28;20482;-73
2022/07/01 06:49:15;;;;;;;7.28;5.60;;;;;;;;;;5037084;28;20947;-73
2022/07/01 06:51:41;;;;;;;6.18;5.45;;;;;;;;;;5036054;28;20515;-73
2022/07/01 06:54:08;;;;;;;6.40;5.60;;;;;;;;;;5037087;28;20789;-73
2022/07/01 06:56:34;;;;;;;8.18;7.30;;;;;;;;;;5038822;28;20977;-73
2022/07/01 06:59:01;;;;;;;7.95;7.25;;;;;;;;;;5039610;28;20795;-73
2022/07/01 07:01:27;;;;;;;8.20;7.30;;;;;;;;;;5036839;28;20405;-73
2022/07/01 07:03:54;;;;;;;12.27;7.77;;;;;;;;;;5040098;28;20444;-73
2022/07/01 07:06:21;;;;;;;8.88;8.07;;;;;;;;;;5040922;28;20433;-73
2022/07/01 07:08:48;;;;;;;10.07;8.60;;;;;;;;;;5038385;28;20430;-73
2022/07/01 07:11:14;;;;;;;9.50;7.80;;;;;;;;;;5038630;28;20436;-73
2022/07/01 07:13:41;;;;;;;9.68;8.73;;;;;;;;;;5037659;28;20438;-73
2022/07/01 07:16:07;;;;;;;10.07;9.07;;;;;;;;;;5039144;28;20437;-73
2022/07/01 07:18:33;;;;;;;12.05;9.25;;;;;;;;;;5040171;28;20441;-73
2022/07/01 07:21:00;;;;;;;12.10;10.50;;;;;;;;;;5038891;28;20426;-74
2022/07/01 07:23:27;;;;;;;10.85;9.75;;;;;;;;;;5042296;28;20421;-73
2022/07/01 07:25:54;;;;;;;12.30;10.70;;;;;;;;;;5040568;28;20436;-73
2022/07/01 07:28:20;;;;;;;10.70;9.60;;;;;;;;;;5038927;28;20957;-74
2022/07/01 07:30:46;;;;;;;10.57;9.57;;;;;;;;;;5040692;28;20433;-73
2022/07/01 07:33:13;;;;;;;12.02;10.82;;;;;;;;;;5039124;28;20986;-74
2022/07/01 07:35:39;;;;;;;12.67;11.37;;;;;;;;;;5034860;28;20437;-73
2022/07/01 07:38:07;;;;;;;12.20;11.00;;;;;;;;;;5038017;28;20430;-74
2022/07/01 07:40:35;;;;;;;12.87;11.57;;;;;;;;;;5040924;28;20889;-73
2022/07/01 07:43:03;;;;;;;12.73;11.15;;;;;;;;;;5039948;28;20434;-73
2022/07/01 07:45:29;;;;;;;16.80;13.50;;;;;;;;;;5038675;28;20444;-73
2022/07/01 07:47:56;;;;;;;13.68;12.07;;;;;;;;;;5040160;28;20434;-73
2022/07/01 07:50:22;;;;;;;15.27;13.73;;;;;;;;;;5040084;28;20441;-73
2022/07/01 07:52:49;;;;;;;16.30;13.20;;;;;;;;;;5037303;28;20449;-73
2022/07/01 07:55:15;;;;;;;14.90;13.35;;;;;;;;;;5039868;28;20434;-73
2022/07/01 07:57:43;;;;;;;16.55;14.80;;;;;;;;;;5038751;28;20434;-73
2022/07/01 08:00:10;;;;;;;16.83;15.13;;;;;;;;;;5039274;28;20959;-74
2022/07/01 08:02:36;;;;;;;17.25;15.55;;;;;;;;;;5039821;28;20433;-73
2022/07/01 08:05:03;;;;;;;17.63;15.93;;;;;;;;;;5037917;28;21008;-73
2022/07/01 08:07:30;;;;;;;17.95;15.93;;;;;;;;;;5037060;28;20427;-73
2022/07/01 08:09:56;;;;;;;17.67;15.85;;;;;;;;;;5038489;28;20411;-73
2022/07/01 08:12:25;;;;;;;22.33;18.75;;;;;;;;;;5038511;28;20425;-73
2022/07/01 08:14:53;;;;;;;20.85;18.70;;;;;;;;;;5040090;28;20500;-73
2022/07/01 08:17:20;;;;;;;21.57;19.10;;;;;;;;;;5038590;28;20432;-73
2022/07/01 08:19:46;;;;;;;23.55;19.50;;;;;;;;;;5038260;28;20425;-73
2022/07/01 08:22:12;;;;;;;25.48;20.88;;;;;;;;;;5038657;28;20431;-73
2022/07/01 08:24:39;;;;;;;34.88;23.48;;;;;;;;;;5033681;28;20429;-73
2022/07/01 08:27:05;;;;;;;26.63;22.27;;;;;;;;;;5039003;28;20417;-73
2022/07/01 08:29:31;;;;;;;29.88;24.08;;;;;;;;;;5038586;28;20796;-73
2022/07/01 08:31:59;;;;;;;29.08;24.83;;;;;;;;;;5037638;28;20418;-73
2022/07/01 08:34:26;;;;;;;32.58;26.05;;;;;;;;;;5038039;28;20429;-73
2022/07/01 08:36:52;;;;;;;32.00;25.40;;;;;;;;;;5039492;28;20422;-73
2022/07/01 08:39:18;;;;;;;29.10;24.45;;;;;;;;;;5037379;28;20434;-73
2022/07/01 08:41:45;;;;;;;32.63;26.77;;;;;;;;;;5039070;28;20496;-73
2022/07/01 08:44:11;;;;;;;34.33;27.50;;;;;;;;;;5039614;28;20429;-73
2022/07/01 08:46:37;;;;;;;31.65;27.08;;;;;;;;;;5038064;28;20808;-73
2022/07/01 08:49:05;;;;;;;32.60;27.55;;;;;;;;;;5036779;28;20443;-73
2022/07/01 08:51:31;;;;;;;33.38;28.77;;;;;;;;;;5037642;28;20417;-73
2022/07/01 08:53:57;;;;;;;30.50;26.60;;;;;;;;;;5038896;28;20409;-73
2022/07/01 08:56:43;;;;;;;30.75;27.42;;;;;;;;;;5035073;28;20452;-73
2022/07/01 08:59:10;;;;;;;30.40;27.10;;;;;;;;;;5036897;28;20433;-74
2022/07/01 09:01:37;;;;;;;33.63;27.95;;;;;;;;;;5036923;28;20415;-73
2022/07/01 09:04:15;;;;;;;33.22;28.30;;;;;;;;;;5034036;28;20801;-74
2022/07/01 09:06:41;;;;;;;32.67;28.02;;;;;;;;;;5038602;28;20421;-74
2022/07/01 09:09:11;;;;;;;31.90;28.13;;;;;;;;;;5037751;28;20413;-74
2022/07/01 09:11:37;;;;;;;29.70;26.23;;;;;;;;;;5037150;28;20409;-74
2022/07/01 09:14:07;;;;;;;30.60;27.02;;;;;;;;;;5038061;28;20425;-74
2022/07/01 09:16:40;;;;;;;31.05;27.60;;;;;;;;;;5038774;28;20410;-74
2022/07/01 09:19:06;;;;;;;32.13;28.00;;;;;;;;;;5037800;28;20425;-74
2022/07/01 09:21:34;;;;;;;38.45;31.10;;;;;;;;;;5038899;28;20416;-74
2022/07/01 09:24:03;;;;;;;33.67;27.17;;;;;;;;;;5036492;28;20439;-74
2022/07/01 09:26:29;;;;;;;36.50;28.50;;;;;;;;;;5037524;28;20413;-74
2022/07/01 09:28:56;;;;;;;33.60;26.40;;;;;;;;;;5037167;28;20971;-74
2022/07/01 09:31:22;;;;;;;30.80;26.38;;;;;;;;;;5037493;28;20982;-74
2022/07/01 09:34:02;;;;;;;29.80;25.92;;;;;;;;;;5036907;28;20802;-74
2022/07/01 09:36:29;;;;;;;27.25;24.20;;;;;;;;;;5037619;28;20773;-74
2022/07/01 09:38:56;;;;;;;26.23;23.27;;;;;;;;;;5039833;28;20422;-74
2022/07/01 09:41:24;;;;;;;28.75;24.50;;;;;;;;;;5035155;28;20406;-73
2022/07/01 09:43:50;;;;;;;25.92;23.15;;;;;;;;;;5038372;28;20430;-74
2022/07/01 09:46:16;;;;;;;28.08;24.25;;;;;;;;;;5038058;28;20476;-74
2022/07/01 09:48:44;;;;;;;26.80;23.10;;;;;;;;;;5038221;28;20423;-74
2022/07/01 09:51:11;;;;;;;26.27;23.40;;;;;;;;;;5038236;28;20425;-74
2022/07/01 09:53:37;;;;;;;25.92;22.27;;;;;;;;;;5037151;28;20497;-74
2022/07/01 09:56:05;;;;;;;26.35;23.02;;;;;;;;;;5034889;28;20441;-74
2022/07/01 09:58:32;;;;;;;27.67;22.37;;;;;;;;;;5036223;28;20928;-73
2022/07/01 10:00:58;;;;;;;26.83;23.23;;;;;;;;;;5035576;28;21087;-74
2022/07/01 10:03:26;;;;;;;28.15;22.55;;;;;;;;;;5035887;28;20434;-74
2022/07/01 10:05:55;;;;;;;29.45;24.60;;;;;;;;;;5037284;28;20434;-74
2022/07/01 10:08:33;;;;;;;27.40;24.15;;;;;;;;;;5036311;28;20474;-74
2022/07/01 10:11:07;;;;;;;27.75;24.75;;;;;;;;;;5037142;28;20949;-74
2022/07/01 10:13:35;;;;;;;26.35;23.48;;;;;;;;;;5037998;28;20432;-74
2022/07/01 10:16:02;;;;;;;27.63;24.23;;;;;;;;;;5037404;28;20429;-74
2022/07/01 10:18:29;;;;;;;28.13;24.85;;;;;;;;;;5016303;28;20787;-74
2022/07/01 10:20:57;;;;;;;30.52;24.77;;;;;;;;;;5016755;28;20440;-74
2022/07/01 10:23:24;;;;;;;26.05;23.25;;;;;;;;;;5016853;28;20436;-74
2022/07/01 10:25:51;;;;;;;25.90;22.83;;;;;;;;;;5017731;28;20447;-74
2022/07/01 10:28:23;;;;;;;28.08;23.20;;;;;;;;;;5017960;28;20424;-74
2022/07/01 10:30:55;;;;;;;24.50;21.90;;;;;;;;;;5019120;28;20420;-74
2022/07/01 10:33:28;;;;;;;25.70;23.10;;;;;;;;;;5020731;28;20446;-74
2022/07/01 10:35:55;;;;;;;26.67;23.70;;;;;;;;;;5020061;28;20412;-74
2022/07/01 10:38:21;;;;;;;26.10;22.40;;;;;;;;;;5018461;28;20435;-74
2022/07/01 10:40:49;;;;;;;25.67;22.20;;;;;;;;;;5019983;28;20441;-73
2022/07/01 10:43:16;;;;;;;24.13;21.42;;;;;;;;;;5020494;28;20443;-74
2022/07/01 10:45:42;;;;;;;24.90;22.30;;;;;;;;;;5020286;28;20423;-74
2022/07/01 10:48:20;;;;;;;24.75;22.15;;;;;;;;;;5020269;28;20943;-74
2022/07/01 10:50:47;;;;;;;21.40;19.10;;;;;;;;;;5021471;28;20449;-74
2022/07/01 10:53:13;;;;;;;22.48;18.40;;;;;;;;;;5019991;28;20427;-74
2022/07/01 10:55:40;;;;;;;21.00;18.80;;;;;;;;;;5018368;28;20802;-74
2022/07/01 10:58:07;;;;;;;20.70;18.60;;;;;;;;;;5020005;28;20419;-74
2022/07/01 11:00:34;;;;;;;21.77;19.55;;;;;;;;;;5021070;28;20444;-74
2022/07/01 11:03:11;;;;;;;19.98;17.98;;;;;;;;;;5020704;28;20426;-74
2022/07/01 11:05:39;;;;;;;20.33;18.33;;;;;;;;;;5021741;28;20915;-74
2022/07/01 11:08:06;;;;;;;20.83;18.57;;;;;;;;;;5019537;28;20423;-74
2022/07/01 11:10:32;;;;;;;21.92;19.73;;;;;;;;;;5018557;28;20431;-74
2022/07/01 11:12:59;;;;;;;19.40;17.40;;;;;;;;;;5019086;28;20436;-74
2022/07/01 11:15:27;;;;;;;19.02;17.10;;;;;;;;;;5021268;28;20419;-74
2022/07/01 11:17:56;;;;;;;19.13;17.13;;;;;;;;;;5018901;28;20437;-74
2022/07/01 11:20:22;;;;;;;16.23;14.60;;;;;;;;;;5020496;28;20441;-74
2022/07/01 11:22:50;;;;;;;15.80;14.10;;;;;;;;;;5018143;28;20923;-74
2022/07/01 11:25:18;;;;;;;16.20;14.50;;;;;;;;;;5020129;28;20431;-74
2022/07/01 11:27:47;;;;;;;15.05;13.50;;;;;;;;;;5033363;28;20433;-74
2022/07/01 11:30:13;;;;;;;14.55;13.05;;;;;;;;;;5040321;28;20444;-74
2022/07/01 11:32:42;;;;;;;17.98;13.60;;;;;;;;;;5025766;28;20429;-74
2022/07/01 11:39:21;;;;;;;15.55;13.85;;;;;;;;;;5020025;28;20526;-74
2022/07/01 11:40:50;;;;;;;15.70;14.15;;;;;;;;;;5020162;28;20992;-74
2022/07/01 11:43:21;;;;;;;15.40;13.60;;;;;;;;;;5018806;28;20931;-73
2022/07/01 11:45:47;;;;;;;14.88;13.38;;;;;;;;;;5019982;28;20434;-74
2022/07/01 11:48:28;;;;;;;15.35;13.80;;;;;;;;;;5019515;28;20429;-74
2022/07/01 11:50:54;;;;;;;13.55;12.25;;;;;;;;;;5020601;28;20424;-74
2022/07/01 11:53:22;;;;;;;13.77;12.40;;;;;;;;;;5020791;28;20432;-74
2022/07/01 11:55:48;;;;;;;11.65;10.43;;;;;;;;;;5018193;28;20434;-74
2022/07/01 11:58:14;;;;;;;14.73;10.65;;;;;;;;;;5019324;28;20427;-74
2022/07/01 12:00:41;;;;;;;11.25;9.70;;;;;;;;;;5019634;28;20788;-74
2022/07/01 12:03:08;;;;;;;12.95;9.60;;;;;;;;;;5020130;28;20416;-74
2022/07/01 12:05:35;;;;;;;11.27;8.80;;;;;;;;;;5018120;28;20907;-74
2022/07/01 12:08:02;;;;;;;10.25;9.05;;;;;;;;;;5018232;28;20432;-74
2022/07/01 12:10:29;;;;;;;10.87;9.77;;;;;;;;;;5020077;28;20981;-74
2022/07/01 12:12:56;;;;;;;11.40;10.20;;;;;;;;;;5047782;23;20425;-75
2022/07/01 12:15:22;;;;;;;10.32;9.07;;;;;;;;;;5038234;28;20426;-75
2022/07/01 12:17:49;;;;;;;9.20;7.95;;;;;;;;;;5031526;28;20438;-75
2022/07/01 12:20:15;;;;;;;8.63;7.72;;;;;;;;;;5033826;28;20431;-75
2022/07/01 12:22:41;;;;;;;9.35;7.90;;;;;;;;;;5021098;28;20426;-75
2022/07/01 12:25:10;;;;;;;8.70;6.50;;;;;;;;;;5018509;28;20416;-75
2022/07/01 12:27:38;;;;;;;8.87;6.97;;;;;;;;;;5013756;28;20425;-75
2022/07/01 12:30:05;;;;;;;7.65;6.85;;;;;;;;;;5016333;28;20418;-75
2022/07/01 12:32:35;;;;;;;8.38;7.15;;;;;;;;;;5015536;28;20431;-75
2022/07/01 12:35:01;;;;;;;8.90;7.30;;;;;;;;;;5008132;28;20427;-75
2022/07/01 12:37:29;;;;;;;8.52;7.22;;;;;;;;;;5016798;28;20504;-75
2022/07/01 12:39:57;;;;;;;9.43;7.03;;;;;;;;;;5013314;28;20441;-75
2022/07/01 12:42:24;;;;;;;8.97;7.23;;;;;;;;;;5016566;28;20419;-75
2022/07/01 12:44:53;;;;;;;9.77;7.95;;;;;;;;;;5017273;28;20789;-75
2022/07/01 12:47:25;;;;;;;10.60;7.70;;;;;;;;;;5007970;28;20432;-75
2022/07/01 12:49:51;;;;;;;9.75;8.18;;;;;;;;;;5012561;28;20438;-75
2022/07/01 12:52:24;;;;;;;9.50;8.50;;;;;;;;;;5016287;28;20434;-75
2022/07/01 12:54:51;;;;;;;11.23;8.88;;;;;;;;;;5007600;28;20432;-76
2022/07/01 12:57:17;;;;;;;11.20;10.00;;;;;;;;;;5015038;28;20447;-75
2022/07/01 12:59:43;;;;;;;9.70;8.80;;;;;;;;;;5011101;28;20438;-75
2022/07/01 13:02:11;;;;;;;12.13;9.15;;;;;;;;;;5011821;28;20423;-75
2022/07/01 13:04:37;;;;;;;9.60;8.68;;;;;;;;;;5016915;28;20416;-75
2022/07/01 13:07:04;;;;;;;12.27;8.40;;;;;;;;;;5015048;28;20423;-75
2022/07/01 13:09:30;;;;;;;9.18;8.18;;;;;;;;;;5011809;28;20430;-75
2022/07/01 13:11:57;;;;;;;10.53;7.57;;;;;;;;;;5008976;28;20425;-75
2022/07/01 13:14:23;;;;;;;10.07;7.75;;;;;;;;;;5016152;28;20457;-75
2022/07/01 13:16:49;;;;;;;9.18;8.07;;;;;;;;;;5014731;28;20426;-75
2022/07/01 13:19:17;;;;;;;8.50;7.53;;;;;;;;;;5014324;28;20427;-75
2022/07/01 13:21:43;;;;;;;11.57;7.90;;;;;;;;;;5014724;28;20434;-75
2022/07/01 13:24:09;;;;;;;11.57;9.20;;;;;;;;;;5012940;28;20913;-75
2022/07/01 13:26:36;;;;;;;10.15;7.80;;;;;;;;;;5012316;28;20413;-75
2022/07/01 13:29:02;;;;;;;9.77;7.47;;;;;;;;;;5016923;28;20409;-75
2022/07/01 13:31:28;;;;;;;7.78;6.97;;;;;;;;;;5016603;28;20783;-75
2022/07/01 13:33:55;;;;;;;8.00;6.75;;;;;;;;;;5016986;28;20437;-75
2022/07/01 13:36:22;;;;;;;8.13;5.97;;;;;;;;;;5016275;28;20404;-75
2022/07/01 13:38:48;;;;;;;5.60;5.10;;;;;;;;;;5016297;28;20889;-75
2022/07/01 13:41:15;;;;;;;6.60;6.00;;;;;;;;;;5015533;28;20439;-75
2022/07/01 13:43:41;;;;;;;6.50;5.90;;;;;;;;;;5016586;28;20426;-75
2022/07/01 13:46:07;;;;;;;7.20;5.82;;;;;;;;;;5015698;28;20443;-75
2022/07/01 13:48:34;;;;;;;7.32;5.97;;;;;;;;;;5012692;28;20908;-75
2022/07/01 13:51:00;;;;;;;8.57;5.20;;;;;;;;;;5016535;28;20411;-75
2022/07/01 13:53:28;;;;;;;8.43;6.25;;;;;;;;;;5000086;28;20439;-75
2022/07/01 13:55:54;;;;;;;7.18;5.85;;;;;;;;;;4995753;28;20434;-76
2022/07/01 13:58:20;;;;;;;6.97;5.53;;;;;;;;;;5029054;28;20435;-75
2022/07/01 14:00:47;;;;;;;8.82;5.20;;;;;;;;;;5035243;28;20895;-75
2022/07/01 14:03:13;;;;;;;8.90;5.22;;;;;;;;;;5015577;28;20434;-75
2022/07/01 14:05:39;;;;;;;6.68;5.55;;;;;;;;;;5021018;28;20420;-76
2022/07/01 14:08:06;;;;;;;5.97;5.10;;;;;;;;;;5018177;28;20540;-76
2022/07/01 14:10:35;;;;;;;8.23;5.80;;;;;;;;;;5017414;28;20438;-75
2022/07/01 14:13:02;;;;;;;7.10;6.00;;;;;;;;;;5016089;28;20430;-75
2022/07/01 14:15:28;;;;;;;7.53;6.28;;;;;;;;;;5020208;28;20420;-76
2022/07/01 14:17:54;;;;;;;8.70;5.70;;;;;;;;;;5016658;28;20442;-75
2022/07/01 14:20:21;;;;;;;6.00;5.03;;;;;;;;;;5020007;28;20426;-75
2022/07/01 14:22:47;;;;;;;9.68;7.10;;;;;;;;;;5020273;28;20422;-76
2022/07/01 14:25:13;;;;;;;10.30;6.30;;;;;;;;;;5016298;28;20438;-75
2022/07/01 14:27:41;;;;;;;7.10;6.22;;;;;;;;;;5017995;28;20808;-76
2022/07/01 14:30:08;;;;;;;8.60;6.50;;;;;;;;;;5015576;28;20917;-75
2022/07/01 14:32:35;;;;;;;8.97;6.20;;;;;;;;;;5019289;28;20432;-76
2022/07/01 14:35:02;;;;;;;7.18;6.40;;;;;;;;;;5018755;28;20455;-76
2022/07/01 14:37:28;;;;;;;7.80;6.10;;;;;;;;;;5005069;28;20428;-76
2022/07/01 14:39:57;;;;;;;8.73;6.45;;;;;;;;;;5018533;28;20439;-76
2022/07/01 14:42:23;;;;;;;9.18;6.50;;;;;;;;;;5019143;28;20451;-75
2022/07/01 14:44:52;;;;;;;8.43;6.25;;;;;;;;;;5019991;28;20423;-76
2022/07/01 14:47:18;;;;;;;8.82;6.05;;;;;;;;;;5020347;28;20425;-75
2022/07/01 14:49:45;;;;;;;7.43;6.00;;;;;;;;;;5018288;28;20442;-76